createdAt,value
2022-11-28T07:10:19.860Z,3.00
2022-11-28T07:13:01.226Z,2.90
2022-11-28T07:15:36.371Z,2.90
2022-11-28T07:18:09.188Z,3.00
2022-11-28T07:20:41.748Z,3.00
2022-11-28T07:23:14.632Z,3.10
2022-11-28T07:25:47.222Z,3.10
2022-11-28T07:28:23.287Z,3.10
2022-11-28T07:31:02.810Z,3.20
2022-11-28T07:33:35.758Z,3.20
2022-11-28T07:36:12.788Z,3.30
2022-11-28T07:39:06.514Z,3.40
2022-11-28T07:41:39.060Z,3.40
2022-11-28T07:44:13.121Z,3.50
2022-11-28T07:46:46.924Z,3.60
2022-11-28T07:49:22.771Z,3.70
2022-11-28T07:51:58.891Z,3.70
2022-11-28T07:54:31.912Z,3.80
2022-11-28T07:57:12.025Z,3.90
2022-11-28T07:59:46.061Z,4.00
2022-11-28T08:02:18.963Z,4.00
2022-11-28T08:04:55.220Z,4.10
2022-11-28T08:07:28.058Z,4.20
2022-11-28T08:10:00.936Z,4.20
2022-11-28T08:12:33.496Z,4.30
2022-11-28T08:15:06.545Z,4.30
2022-11-28T08:17:39.186Z,4.40
2022-11-28T08:20:12.425Z,4.50
2022-11-28T08:22:44.947Z,4.60
2022-11-28T08:25:17.792Z,4.60
2022-11-28T08:27:50.310Z,4.70
2022-11-28T08:30:23.310Z,4.80
2022-11-28T08:32:55.942Z,4.90
2022-11-28T08:35:28.986Z,5.10
2022-11-28T08:38:02.227Z,5.30
2022-11-28T08:40:35.132Z,5.40
2022-11-28T08:43:08.194Z,5.60
2022-11-28T08:45:41.095Z,5.70
2022-11-28T08:48:13.695Z,5.80
2022-11-28T08:50:50.166Z,5.90
2022-11-28T08:53:23.167Z,5.90
2022-11-28T08:55:56.243Z,5.90
2022-11-28T08:58:28.910Z,5.80
2022-11-28T09:01:01.901Z,5.80
2022-11-28T09:03:34.613Z,5.60
2022-11-28T09:06:07.657Z,5.50
2022-11-28T09:08:40.458Z,5.40
2022-11-28T09:11:17.479Z,5.30
2022-11-28T09:13:50.749Z,5.20
2022-11-28T09:16:23.564Z,5.30
2022-11-28T09:18:59.088Z,5.40
2022-11-28T09:21:31.916Z,5.50
2022-11-28T09:24:04.774Z,5.70
2022-11-28T09:26:37.570Z,5.90
2022-11-28T09:29:10.148Z,6.10
2022-11-28T09:31:47.091Z,6.20
2022-11-28T09:34:20.193Z,6.20
2022-11-28T09:36:53.064Z,6.20
2022-11-28T09:39:35.814Z,6.00
2022-11-28T09:42:43.928Z,5.90
2022-11-28T09:45:22.056Z,5.70
2022-11-28T09:48:01.350Z,5.60
2022-11-28T09:53:46.709Z,5.60
2022-11-28T09:56:22.535Z,5.50
2022-11-28T09:59:04.986Z,5.50
2022-11-28T10:02:05.033Z,5.50
2022-11-28T10:04:37.947Z,5.50
2022-11-28T10:07:42.717Z,5.60
2022-11-28T10:10:44.216Z,5.70
2022-11-28T10:13:59.759Z,5.80
2022-11-28T10:16:53.245Z,5.90
2022-11-28T10:23:04.671Z,6.00
2022-11-28T10:25:51.133Z,6.00
2022-11-28T10:28:34.629Z,6.00
2022-11-28T10:31:36.514Z,6.10
2022-11-28T10:34:17.989Z,6.10
2022-11-28T10:37:54.573Z,6.20
2022-11-28T10:40:59.863Z,6.40
2022-11-28T10:43:40.863Z,6.40
2022-11-28T10:46:44.564Z,6.50
2022-11-28T10:49:53.393Z,6.60
2022-11-28T10:52:44.275Z,6.60
2022-11-28T10:55:49.947Z,6.60
2022-11-28T10:59:07.067Z,6.70
2022-11-28T11:01:43.752Z,6.80
2022-11-28T11:04:26.904Z,6.90
2022-11-28T11:07:22.765Z,7.00
2022-11-28T11:10:22.007Z,7.10
2022-11-28T11:12:54.780Z,7.10
2022-11-28T11:15:32.464Z,7.20
2022-11-28T11:18:18.934Z,7.20
2022-11-28T11:20:52.325Z,7.20
2022-11-28T11:23:24.865Z,7.20
2022-11-28T11:25:58.677Z,7.10
2022-11-28T11:28:39.905Z,7.10
2022-11-28T11:31:23.504Z,7.20
2022-11-28T11:34:31.245Z,7.20
2022-11-28T11:38:04.782Z,7.20
2022-11-28T11:40:40.099Z,7.30
2022-11-28T11:43:32.086Z,7.20
2022-11-28T11:46:16.225Z,7.20
2022-11-28T11:48:53.592Z,7.20
2022-11-28T11:51:36.515Z,7.20
2022-11-28T11:54:14.591Z,7.20
2022-11-28T11:57:00.601Z,7.20
2022-11-28T11:59:47.429Z,7.20
2022-11-28T12:02:36.386Z,7.20
2022-11-28T12:05:18.726Z,7.20
2022-11-28T12:08:15.092Z,7.20
2022-11-28T12:11:06.633Z,7.10
2022-11-28T12:13:39.321Z,7.10
2022-11-28T12:16:43.809Z,7.10
2022-11-28T12:20:01.891Z,7.10
2022-11-28T12:22:57.797Z,7.10
2022-11-28T12:25:59.637Z,7.10
2022-11-28T12:28:44.661Z,7.00
2022-11-28T12:31:17.167Z,7.00
2022-11-28T12:34:14.687Z,6.90
2022-11-28T12:37:11.939Z,6.90
2022-11-28T12:39:44.988Z,6.90
2022-11-28T12:42:46.619Z,6.90
2022-11-28T12:45:28.651Z,6.90
2022-11-28T12:48:22.091Z,6.90
2022-11-28T12:51:06.958Z,6.80
2022-11-28T12:53:45.546Z,6.80
2022-11-28T12:56:48.673Z,6.80
2022-11-28T12:59:46.972Z,6.80
2022-11-28T13:02:38.626Z,6.70
2022-11-28T13:05:38.655Z,6.70
2022-11-28T13:08:43.311Z,6.60
2022-11-28T13:12:03.987Z,6.60
2022-11-28T13:15:00.522Z,6.50
2022-11-28T13:17:43.819Z,6.50
2022-11-28T13:20:22.814Z,6.50
2022-11-28T13:23:28.949Z,6.50
2022-11-28T13:26:04.965Z,6.40
2022-11-28T13:28:50.612Z,6.40
2022-11-28T13:31:42.075Z,6.30
2022-11-28T13:34:19.502Z,6.30
2022-11-28T13:40:02.273Z,6.30
2022-11-28T13:43:07.585Z,6.20
2022-11-28T13:51:36.751Z,6.00
2022-11-28T13:54:21.567Z,6.00
2022-11-28T13:57:21.541Z,5.90
2022-11-28T14:00:00.317Z,5.80
2022-11-28T14:02:50.695Z,5.80
2022-11-28T14:05:37.853Z,5.80
2022-11-28T14:08:28.343Z,5.80
2022-11-28T14:11:34.541Z,5.70
2022-11-28T14:14:26.352Z,5.70
2022-11-28T14:17:26.462Z,5.60
2022-11-28T14:20:30.608Z,5.50
2022-11-28T14:23:33.688Z,5.50
2022-11-28T14:26:20.408Z,5.40
2022-11-28T14:28:53.887Z,5.40
2022-11-28T14:31:35.826Z,5.30
2022-11-28T14:34:43.336Z,5.30
2022-11-28T14:38:00.365Z,5.20
2022-11-28T14:41:01.054Z,5.20
2022-11-28T14:43:37.970Z,5.20
2022-11-28T14:46:24.605Z,5.10
2022-11-28T14:49:03.102Z,5.10
2022-11-28T14:51:49.344Z,5.10
2022-11-28T14:54:35.460Z,5.10
2022-11-28T14:57:29.062Z,5.10
2022-11-28T15:00:16.062Z,5.10
2022-11-28T15:03:25.108Z,5.00
2022-11-28T15:06:11.276Z,5.00
2022-11-28T15:09:07.978Z,4.90
2022-11-28T15:11:59.047Z,4.90
2022-11-28T15:14:35.436Z,4.90
2022-11-28T15:17:13.899Z,4.90
2022-11-28T15:19:49.404Z,4.80
2022-11-28T15:22:31.945Z,4.80
2022-11-28T15:25:05.317Z,4.80
2022-11-28T15:27:37.876Z,4.80
2022-11-28T15:30:19.701Z,4.80
2022-11-28T15:33:12.981Z,4.80
2022-11-28T15:36:02.407Z,4.70
2022-11-28T15:38:37.169Z,4.70
2022-11-28T15:41:10.634Z,4.80
2022-11-28T15:43:46.080Z,4.80
2022-11-28T15:46:32.785Z,4.80
2022-11-28T15:49:07.300Z,4.70
2022-11-28T15:51:40.152Z,4.80
2022-11-28T15:54:43.525Z,4.70
2022-11-28T15:57:23.919Z,4.80
2022-11-28T15:59:57.005Z,4.80
2022-11-28T16:02:35.766Z,4.80
2022-11-28T16:05:25.492Z,4.80
2022-11-28T16:07:58.683Z,4.90
2022-11-28T16:10:37.947Z,4.80
2022-11-28T16:13:14.301Z,4.70
2022-11-28T16:15:50.331Z,4.70
2022-11-28T16:18:25.743Z,4.70
2022-11-28T16:21:00.048Z,4.80
2022-11-28T16:23:35.368Z,4.70
2022-11-28T16:26:22.691Z,4.70
2022-11-28T16:29:07.737Z,4.70
2022-11-28T16:31:44.141Z,4.70
2022-11-28T16:34:16.976Z,4.70
2022-11-28T16:36:50.247Z,4.70
2022-11-28T16:39:23.958Z,4.70
2022-11-28T16:42:17.321Z,4.70
2022-11-28T16:44:50.212Z,4.70
2022-11-28T16:47:26.268Z,4.60
2022-11-28T16:50:17.735Z,4.70
2022-11-28T16:52:50.320Z,4.60
2022-11-28T16:55:29.130Z,4.60
2022-11-28T16:58:14.756Z,4.60
2022-11-28T17:01:05.515Z,4.60
2022-11-28T17:03:41.523Z,4.50
2022-11-28T17:06:21.113Z,4.50
2022-11-28T17:08:53.671Z,4.50
2022-11-28T17:11:29.616Z,4.60
2022-11-28T17:14:11.811Z,4.50
2022-11-28T17:16:46.375Z,4.50
2022-11-28T17:19:18.958Z,4.50
2022-11-28T17:21:59.113Z,4.50
2022-11-28T17:24:35.976Z,4.50
2022-11-28T17:27:12.115Z,4.50
2022-11-28T17:29:44.782Z,4.50
2022-11-28T17:32:18.003Z,4.50
2022-11-28T17:34:50.562Z,4.40
2022-11-28T17:37:23.423Z,4.50
2022-11-28T17:40:14.579Z,4.40
2022-11-28T17:42:47.396Z,4.40
2022-11-28T17:45:22.272Z,4.40
2022-11-28T17:47:59.211Z,4.40
2022-11-28T17:50:34.811Z,4.40
2022-11-28T17:53:09.187Z,4.40
2022-11-28T17:55:47.031Z,4.40
2022-11-28T17:58:23.420Z,4.40
2022-11-28T18:01:00.586Z,4.40
2022-11-28T18:04:04.766Z,4.40
2022-11-28T18:06:38.822Z,4.30
2022-11-28T18:09:12.904Z,4.30
2022-11-28T18:11:46.839Z,4.30
2022-11-28T18:14:26.133Z,4.40
2022-11-28T18:16:58.773Z,4.40
2022-11-28T18:19:31.656Z,4.30
2022-11-28T18:22:04.156Z,4.30
2022-11-28T18:24:37.509Z,4.30
2022-11-28T18:27:10.033Z,4.30
2022-11-28T18:29:43.143Z,4.30
2022-11-28T18:32:15.864Z,4.30
2022-11-28T18:34:48.670Z,4.30
2022-11-28T18:37:21.157Z,4.20
2022-11-28T18:39:53.940Z,4.20
2022-11-28T18:42:26.632Z,4.20
2022-11-28T18:44:59.435Z,4.20
2022-11-28T18:47:31.950Z,4.20
2022-11-28T18:50:07.704Z,4.20
2022-11-28T18:52:40.524Z,4.20
2022-11-28T18:55:13.347Z,4.20
2022-11-28T18:57:45.901Z,4.20
2022-11-28T19:00:25.745Z,4.20
2022-11-28T19:03:13.206Z,4.20
2022-11-28T19:05:49.112Z,4.20
2022-11-28T19:08:22.302Z,4.20
2022-11-28T19:10:55.118Z,4.20
2022-11-28T19:13:34.541Z,4.20
2022-11-28T19:16:09.611Z,4.20
2022-11-28T19:18:42.693Z,4.20
2022-11-28T19:21:19.922Z,4.20
2022-11-28T19:23:54.723Z,4.10
2022-11-28T19:26:30.035Z,4.20
2022-11-28T19:29:02.846Z,4.20
2022-11-28T19:31:39.164Z,4.20
2022-11-28T19:34:36.647Z,4.10
2022-11-28T19:37:33.123Z,4.10
2022-11-28T19:40:06.392Z,4.10
2022-11-28T19:42:39.275Z,4.10
2022-11-28T19:45:11.873Z,4.10
2022-11-28T19:47:46.588Z,4.10
2022-11-28T19:50:19.116Z,4.10
2022-11-28T19:52:51.924Z,4.20
2022-11-28T19:55:24.441Z,4.10
2022-11-28T19:57:57.254Z,4.10
2022-11-28T20:00:29.720Z,4.10
2022-11-28T20:03:03.160Z,4.10
2022-11-28T20:05:37.257Z,4.10
2022-11-28T20:08:13.226Z,4.10
2022-11-28T20:10:46.521Z,4.10
2022-11-28T20:13:19.334Z,4.10
2022-11-28T20:15:51.899Z,4.10
2022-11-28T20:18:24.699Z,4.10
2022-11-28T20:21:23.395Z,4.10
2022-11-28T20:23:59.613Z,4.10
2022-11-28T20:26:36.177Z,4.10
2022-11-28T20:29:13.961Z,4.10
2022-11-28T20:31:47.873Z,4.10
2022-11-28T20:34:20.828Z,4.10
2022-11-28T20:36:53.714Z,4.10
2022-11-28T20:39:26.551Z,4.00
2022-11-28T20:41:59.770Z,4.00
2022-11-28T20:44:32.563Z,4.00
2022-11-28T20:47:06.323Z,4.00
2022-11-28T20:49:39.174Z,4.00
2022-11-28T20:52:11.696Z,4.00
2022-11-28T20:54:47.220Z,4.00
2022-11-28T20:57:21.835Z,4.00
2022-11-28T20:59:57.126Z,3.90
2022-11-28T21:02:32.257Z,4.00
2022-11-28T21:05:06.118Z,4.00
2022-11-28T21:07:41.545Z,4.00
2022-11-28T21:10:14.577Z,4.00
2022-11-28T21:12:47.333Z,4.00
2022-11-28T21:15:29.432Z,4.00
2022-11-28T21:18:11.095Z,4.00
2022-11-28T21:20:46.158Z,3.90
2022-11-28T21:23:18.783Z,3.90
2022-11-28T21:25:51.662Z,3.90
2022-11-28T21:28:24.355Z,4.00
2022-11-28T21:31:00.262Z,4.00
2022-11-28T21:33:32.846Z,4.00
2022-11-28T21:36:06.666Z,4.00
2022-11-28T21:38:39.190Z,3.90
2022-11-28T21:41:12.070Z,4.00
2022-11-28T21:43:47.880Z,4.00
2022-11-28T21:46:22.513Z,4.00
2022-11-28T21:48:58.757Z,4.00
2022-11-28T21:51:40.274Z,3.90
2022-11-28T21:54:13.336Z,3.90
2022-11-28T21:56:48.091Z,3.90
2022-11-28T21:59:26.334Z,3.90
2022-11-28T22:02:11.798Z,3.90
2022-11-28T22:05:01.032Z,3.90
2022-11-28T22:07:36.094Z,3.90
2022-11-28T22:10:12.775Z,3.90
2022-11-28T22:12:45.617Z,3.90
2022-11-28T22:15:18.187Z,3.90
2022-11-28T22:18:00.435Z,3.80
2022-11-28T22:20:43.620Z,3.80
2022-11-28T22:23:21.090Z,3.90
2022-11-28T22:25:54.908Z,3.90
2022-11-28T22:28:33.507Z,3.80
2022-11-28T22:31:25.901Z,3.80
2022-11-28T22:33:59.056Z,3.80
2022-11-28T22:36:33.491Z,3.80
2022-11-28T22:39:11.504Z,3.80
2022-11-28T22:41:44.075Z,3.80
2022-11-28T22:44:16.879Z,3.80
2022-11-28T22:46:49.687Z,3.80
2022-11-28T22:49:22.605Z,3.80
2022-11-28T22:51:55.112Z,3.80
2022-11-28T22:54:27.899Z,3.80
2022-11-28T22:57:00.503Z,3.80
2022-11-28T22:59:35.271Z,3.80
2022-11-28T23:02:09.685Z,3.80
2022-11-28T23:04:42.896Z,3.80
2022-11-28T23:07:16.063Z,3.80
2022-11-28T23:09:50.631Z,3.80
2022-11-28T23:12:23.249Z,3.90
2022-11-28T23:14:56.063Z,3.90
2022-11-28T23:17:32.300Z,3.90
2022-11-28T23:20:05.881Z,3.80
2022-11-28T23:22:38.423Z,3.80
2022-11-28T23:25:11.207Z,3.90
2022-11-28T23:27:43.704Z,3.90
2022-11-28T23:30:16.584Z,3.90
2022-11-28T23:32:49.235Z,3.90
2022-11-28T23:35:22.019Z,3.90
2022-11-28T23:37:54.539Z,3.90
2022-11-28T23:40:28.707Z,3.90
2022-11-28T23:43:01.233Z,3.80
2022-11-28T23:45:34.015Z,3.90
2022-11-28T23:48:06.672Z,3.90
2022-11-28T23:50:39.544Z,3.90
2022-11-28T23:53:12.092Z,3.80
2022-11-28T23:55:44.983Z,3.80
2022-11-28T23:58:17.917Z,3.80
